sensor_id;sensor_type;location;lat;lon;timestamp;temperature;humidity
10296;DHT22;5193;51.032;6.356;2023-07-08T00:00:51;20.30;1.00
10296;DHT22;5193;51.032;6.356;2023-07-08T00:03:18;20.30;1.00
10296;DHT22;5193;51.032;6.356;2023-07-08T00:05:45;20.30;99.90
10296;DHT22;5193;51.032;6.356;2023-07-08T00:08:14;20.30;99.90
10296;DHT22;5193;51.032;6.356;2023-07-08T00:10:40;20.30;99.90
10296;DHT22;5193;51.032;6.356;2023-07-08T00:13:07;20.30;1.00
10296;DHT22;5193;51.032;6.356;2023-07-08T00:15:33;20.30;99.90
10296;DHT22;5193;51.032;6.356;2023-07-08T00:17:59;20.30;1.00
10296;DHT22;5193;51.032;6.356;2023-07-08T00:20:32;20.20;99.90
10296;DHT22;5193;51.032;6.356;2023-07-08T00:22:58;20.20;99.90
10296;DHT22;5193;51.032;6.356;2023-07-08T00:25:26;20.20;1.00
10296;DHT22;5193;51.032;6.356;2023-07-08T00:27:51;20.10;99.90
10296;DHT22;5193;51.032;6.356;2023-07-08T00:30:23;20.10;1.00
10296;DHT22;5193;51.032;6.356;2023-07-08T00:32:50;20.00;1.00
10296;DHT22;5193;51.032;6.356;2023-07-08T00:37:54;20.00;1.00
10296;DHT22;5193;51.032;6.356;2023-07-08T00:40:27;20.00;99.90
10296;DHT22;5193;51.032;6.356;2023-07-08T00:42:53;20.00;1.00
10296;DHT22;5193;51.032;6.356;2023-07-08T00:48:01;20.00;1.00
10296;DHT22;5193;51.032;6.356;2023-07-08T00:50:29;19.90;1.00
10296;DHT22;5193;51.032;6.356;2023-07-08T00:53:32;19.90;99.90
10296;DHT22;5193;51.032;6.356;2023-07-08T00:56:13;19.90;99.90
10296;DHT22;5193;51.032;6.356;2023-07-08T01:01:38;19.90;99.90
10296;DHT22;5193;51.032;6.356;2023-07-08T01:04:20;19.90;1.00
10296;DHT22;5193;51.032;6.356;2023-07-08T01:06:48;19.90;99.90
10296;DHT22;5193;51.032;6.356;2023-07-08T01:09:18;19.80;99.90
10296;DHT22;5193;51.032;6.356;2023-07-08T01:11:44;19.80;99.90
10296;DHT22;5193;51.032;6.356;2023-07-08T01:14:12;19.80;99.90
10296;DHT22;5193;51.032;6.356;2023-07-08T01:16:42;19.80;1.00
10296;DHT22;5193;51.032;6.356;2023-07-08T01:19:16;19.70;99.90
10296;DHT22;5193;51.032;6.356;2023-07-08T01:24:18;19.80;1.00
10296;DHT22;5193;51.032;6.356;2023-07-08T01:26:44;19.70;1.00
10296;DHT22;5193;51.032;6.356;2023-07-08T01:29:12;19.80;99.90
10296;DHT22;5193;51.032;6.356;2023-07-08T01:31:38;19.70;1.00
10296;DHT22;5193;51.032;6.356;2023-07-08T01:34:04;19.70;99.90
10296;DHT22;5193;51.032;6.356;2023-07-08T01:36:36;19.70;96.40
10296;DHT22;5193;51.032;6.356;2023-07-08T01:39:04;19.70;99.90
10296;DHT22;5193;51.032;6.356;2023-07-08T01:41:29;19.70;99.90
10296;DHT22;5193;51.032;6.356;2023-07-08T01:43:55;19.60;99.90
10296;DHT22;5193;51.032;6.356;2023-07-08T01:46:23;19.60;99.90
10296;DHT22;5193;51.032;6.356;2023-07-08T01:48:56;19.60;1.00
10296;DHT22;5193;51.032;6.356;2023-07-08T01:51:23;19.60;1.00
10296;DHT22;5193;51.032;6.356;2023-07-08T01:53:49;19.60;1.00
10296;DHT22;5193;51.032;6.356;2023-07-08T01:56:15;19.60;1.00
10296;DHT22;5193;51.032;6.356;2023-07-08T01:58:41;19.60;99.90
10296;DHT22;5193;51.032;6.356;2023-07-08T02:01:08;19.50;43.20
10296;DHT22;5193;51.032;6.356;2023-07-08T02:03:34;19.50;18.70
10296;DHT22;5193;51.032;6.356;2023-07-08T02:06:00;19.50;1.00
10296;DHT22;5193;51.032;6.356;2023-07-08T02:08:25;19.50;1.00
10296;DHT22;5193;51.032;6.356;2023-07-08T02:10:54;19.50;1.00
10296;DHT22;5193;51.032;6.356;2023-07-08T02:13:20;19.50;8.80
10296;DHT22;5193;51.032;6.356;2023-07-08T02:15:46;19.40;1.00
10296;DHT22;5193;51.032;6.356;2023-07-08T02:18:11;19.40;1.00
10296;DHT22;5193;51.032;6.356;2023-07-08T02:20:37;19.40;99.90
10296;DHT22;5193;51.032;6.356;2023-07-08T02:23:02;19.40;99.90
10296;DHT22;5193;51.032;6.356;2023-07-08T02:25:28;19.30;99.90
10296;DHT22;5193;51.032;6.356;2023-07-08T02:27:54;19.30;99.90
10296;DHT22;5193;51.032;6.356;2023-07-08T02:30:25;19.20;99.90
10296;DHT22;5193;51.032;6.356;2023-07-08T02:32:51;19.10;1.00
10296;DHT22;5193;51.032;6.356;2023-07-08T02:35:27;19.10;99.90
10296;DHT22;5193;51.032;6.356;2023-07-08T02:37:54;19.10;1.00
10296;DHT22;5193;51.032;6.356;2023-07-08T02:40:21;19.10;1.00
10296;DHT22;5193;51.032;6.356;2023-07-08T02:42:47;19.00;1.00
10296;DHT22;5193;51.032;6.356;2023-07-08T02:45:15;19.00;1.00
10296;DHT22;5193;51.032;6.356;2023-07-08T02:47:41;18.90;1.00
10296;DHT22;5193;51.032;6.356;2023-07-08T02:50:08;18.90;1.00
10296;DHT22;5193;51.032;6.356;2023-07-08T02:52:34;18.80;99.90
10296;DHT22;5193;51.032;6.356;2023-07-08T02:54:59;18.80;99.90
10296;DHT22;5193;51.032;6.356;2023-07-08T02:57:25;18.70;99.90
10296;DHT22;5193;51.032;6.356;2023-07-08T02:59:51;18.60;1.00
10296;DHT22;5193;51.032;6.356;2023-07-08T03:02:16;18.60;1.00
10296;DHT22;5193;51.032;6.356;2023-07-08T03:04:42;18.50;1.00
10296;DHT22;5193;51.032;6.356;2023-07-08T03:07:08;18.50;1.00
10296;DHT22;5193;51.032;6.356;2023-07-08T03:09:37;18.40;1.00
10296;DHT22;5193;51.032;6.356;2023-07-08T03:12:03;18.40;1.00
10296;DHT22;5193;51.032;6.356;2023-07-08T03:14:28;18.30;1.00
10296;DHT22;5193;51.032;6.356;2023-07-08T03:16:54;18.30;1.00
10296;DHT22;5193;51.032;6.356;2023-07-08T03:19:19;18.20;99.90
10296;DHT22;5193;51.032;6.356;2023-07-08T03:21:45;18.20;99.90
10296;DHT22;5193;51.032;6.356;2023-07-08T03:24:12;18.10;1.00
10296;DHT22;5193;51.032;6.356;2023-07-08T03:26:38;18.10;1.00
10296;DHT22;5193;51.032;6.356;2023-07-08T03:29:04;18.00;1.00
10296;DHT22;5193;51.032;6.356;2023-07-08T03:31:29;18.00;1.00
10296;DHT22;5193;51.032;6.356;2023-07-08T03:33:55;17.90;1.00
10296;DHT22;5193;51.032;6.356;2023-07-08T03:36:21;17.90;1.00
10296;DHT22;5193;51.032;6.356;2023-07-08T03:38:52;17.90;1.00
10296;DHT22;5193;51.032;6.356;2023-07-08T03:41:18;17.80;1.00
10296;DHT22;5193;51.032;6.356;2023-07-08T03:43:44;17.80;1.00
10296;DHT22;5193;51.032;6.356;2023-07-08T03:46:11;17.70;1.00
10296;DHT22;5193;51.032;6.356;2023-07-08T03:48:37;17.70;46.90
10296;DHT22;5193;51.032;6.356;2023-07-08T03:51:03;17.70;99.90
10296;DHT22;5193;51.032;6.356;2023-07-08T03:53:28;17.60;1.00
10296;DHT22;5193;51.032;6.356;2023-07-08T03:55:54;17.60;1.00
10296;DHT22;5193;51.032;6.356;2023-07-08T03:58:19;17.60;1.00
10296;DHT22;5193;51.032;6.356;2023-07-08T04:00:45;17.50;99.90
10296;DHT22;5193;51.032;6.356;2023-07-08T04:03:11;17.50;99.90
10296;DHT22;5193;51.032;6.356;2023-07-08T04:05:37;17.60;99.90
10296;DHT22;5193;51.032;6.356;2023-07-08T04:08:03;17.50;99.90
10296;DHT22;5193;51.032;6.356;2023-07-08T04:10:29;17.50;99.90
10296;DHT22;5193;51.032;6.356;2023-07-08T04:12:54;17.60;99.90
10296;DHT22;5193;51.032;6.356;2023-07-08T04:15:20;17.60;99.90
10296;DHT22;5193;51.032;6.356;2023-07-08T04:17:50;17.60;99.90
10296;DHT22;5193;51.032;6.356;2023-07-08T04:20:18;17.60;99.90
10296;DHT22;5193;51.032;6.356;2023-07-08T04:22:44;17.60;99.90
10296;DHT22;5193;51.032;6.356;2023-07-08T04:25:11;17.70;99.90
10296;DHT22;5193;51.032;6.356;2023-07-08T04:27:38;17.70;50.70
10296;DHT22;5193;51.032;6.356;2023-07-08T04:30:04;17.70;1.00
10296;DHT22;5193;51.032;6.356;2023-07-08T04:32:30;17.70;23.80
10296;DHT22;5193;51.032;6.356;2023-07-08T04:34:56;17.80;99.90
10296;DHT22;5193;51.032;6.356;2023-07-08T04:37:21;17.80;99.90
10296;DHT22;5193;51.032;6.356;2023-07-08T04:39:47;17.80;99.90
10296;DHT22;5193;51.032;6.356;2023-07-08T04:42:14;17.80;99.90
10296;DHT22;5193;51.032;6.356;2023-07-08T04:44:41;17.80;99.90
10296;DHT22;5193;51.032;6.356;2023-07-08T04:47:07;17.80;99.90
10296;DHT22;5193;51.032;6.356;2023-07-08T04:49:34;17.90;1.00
10296;DHT22;5193;51.032;6.356;2023-07-08T04:52:01;17.90;1.00
10296;DHT22;5193;51.032;6.356;2023-07-08T04:54:28;17.80;1.00
10296;DHT22;5193;51.032;6.356;2023-07-08T04:56:53;17.90;1.00
10296;DHT22;5193;51.032;6.356;2023-07-08T04:59:23;17.90;99.90
10296;DHT22;5193;51.032;6.356;2023-07-08T05:01:49;17.80;99.90
10296;DHT22;5193;51.032;6.356;2023-07-08T05:04:16;17.90;99.90
10296;DHT22;5193;51.032;6.356;2023-07-08T05:06:42;17.90;99.90
10296;DHT22;5193;51.032;6.356;2023-07-08T05:09:08;17.90;99.90
10296;DHT22;5193;51.032;6.356;2023-07-08T05:11:34;18.00;99.90
10296;DHT22;5193;51.032;6.356;2023-07-08T05:14:00;18.10;99.90
10296;DHT22;5193;51.032;6.356;2023-07-08T05:16:26;18.10;99.90
10296;DHT22;5193;51.032;6.356;2023-07-08T05:18:51;18.20;99.90
10296;DHT22;5193;51.032;6.356;2023-07-08T05:21:18;18.30;99.90
10296;DHT22;5193;51.032;6.356;2023-07-08T05:23:44;18.40;99.90
10296;DHT22;5193;51.032;6.356;2023-07-08T05:26:11;18.50;99.90
10296;DHT22;5193;51.032;6.356;2023-07-08T05:28:36;18.60;27.80
10296;DHT22;5193;51.032;6.356;2023-07-08T05:31:02;18.70;1.00
10296;DHT22;5193;51.032;6.356;2023-07-08T05:33:29;18.80;1.00
10296;DHT22;5193;51.032;6.356;2023-07-08T05:35:55;18.90;1.00
10296;DHT22;5193;51.032;6.356;2023-07-08T05:38:24;19.00;1.00
10296;DHT22;5193;51.032;6.356;2023-07-08T05:40:50;19.10;1.00
10296;DHT22;5193;51.032;6.356;2023-07-08T05:43:17;19.20;1.00
10296;DHT22;5193;51.032;6.356;2023-07-08T05:45:43;19.30;99.90
10296;DHT22;5193;51.032;6.356;2023-07-08T05:48:09;19.40;96.00
10296;DHT22;5193;51.032;6.356;2023-07-08T05:50:35;19.50;1.00
10296;DHT22;5193;51.032;6.356;2023-07-08T05:53:00;19.60;99.90
10296;DHT22;5193;51.032;6.356;2023-07-08T05:55:26;19.70;1.00
10296;DHT22;5193;51.032;6.356;2023-07-08T05:57:51;19.90;1.00
10296;DHT22;5193;51.032;6.356;2023-07-08T06:00:17;20.00;1.00
10296;DHT22;5193;51.032;6.356;2023-07-08T06:02:43;20.20;99.90
10296;DHT22;5193;51.032;6.356;2023-07-08T06:05:08;20.40;1.00
10296;DHT22;5193;51.032;6.356;2023-07-08T06:07:34;20.60;1.00
10296;DHT22;5193;51.032;6.356;2023-07-08T06:10:00;20.70;99.90
10296;DHT22;5193;51.032;6.356;2023-07-08T06:12:26;20.90;1.00
10296;DHT22;5193;51.032;6.356;2023-07-08T06:14:51;21.10;54.00
10296;DHT22;5193;51.032;6.356;2023-07-08T06:17:17;21.30;99.90
10296;DHT22;5193;51.032;6.356;2023-07-08T06:19:43;21.40;99.90
10296;DHT22;5193;51.032;6.356;2023-07-08T06:22:09;21.50;1.00
10296;DHT22;5193;51.032;6.356;2023-07-08T06:24:35;21.70;99.90
10296;DHT22;5193;51.032;6.356;2023-07-08T06:27:01;21.80;1.00
10296;DHT22;5193;51.032;6.356;2023-07-08T06:29:26;21.90;1.00
10296;DHT22;5193;51.032;6.356;2023-07-08T06:31:52;22.10;1.00
10296;DHT22;5193;51.032;6.356;2023-07-08T06:34:18;22.20;99.90
10296;DHT22;5193;51.032;6.356;2023-07-08T06:36:44;22.40;99.90
10296;DHT22;5193;51.032;6.356;2023-07-08T06:39:10;22.50;99.90
10296;DHT22;5193;51.032;6.356;2023-07-08T06:41:37;22.70;99.50
10296;DHT22;5193;51.032;6.356;2023-07-08T06:44:03;22.90;1.00
10296;DHT22;5193;51.032;6.356;2023-07-08T06:46:29;23.00;1.00
10296;DHT22;5193;51.032;6.356;2023-07-08T06:48:54;23.30;99.90
10296;DHT22;5193;51.032;6.356;2023-07-08T06:51:20;23.50;1.00
10296;DHT22;5193;51.032;6.356;2023-07-08T06:53:45;23.70;99.90
10296;DHT22;5193;51.032;6.356;2023-07-08T06:56:11;23.90;1.00
10296;DHT22;5193;51.032;6.356;2023-07-08T06:58:37;24.10;1.00
10296;DHT22;5193;51.032;6.356;2023-07-08T07:01:03;24.40;99.90
10296;DHT22;5193;51.032;6.356;2023-07-08T07:03:28;24.60;99.90
10296;DHT22;5193;51.032;6.356;2023-07-08T07:05:54;24.80;99.90
10296;DHT22;5193;51.032;6.356;2023-07-08T07:08:19;24.80;99.90
10296;DHT22;5193;51.032;6.356;2023-07-08T07:10:45;24.90;99.90
10296;DHT22;5193;51.032;6.356;2023-07-08T07:13:10;25.00;99.90
10296;DHT22;5193;51.032;6.356;2023-07-08T07:15:36;25.00;99.90
10296;DHT22;5193;51.032;6.356;2023-07-08T07:18:01;25.10;1.00
10296;DHT22;5193;51.032;6.356;2023-07-08T07:20:27;25.20;1.00
10296;DHT22;5193;51.032;6.356;2023-07-08T07:22:54;25.20;1.00
10296;DHT22;5193;51.032;6.356;2023-07-08T07:25:20;25.30;99.90
10296;DHT22;5193;51.032;6.356;2023-07-08T07:27:46;25.50;99.90
10296;DHT22;5193;51.032;6.356;2023-07-08T07:30:12;25.60;99.90
10296;DHT22;5193;51.032;6.356;2023-07-08T07:32:41;25.90;1.00
10296;DHT22;5193;51.032;6.356;2023-07-08T07:35:08;26.10;1.00
10296;DHT22;5193;51.032;6.356;2023-07-08T07:37:34;26.30;1.00
10296;DHT22;5193;51.032;6.356;2023-07-08T07:39:59;26.40;1.00
10296;DHT22;5193;51.032;6.356;2023-07-08T07:42:27;26.60;1.00
10296;DHT22;5193;51.032;6.356;2023-07-08T07:44:53;26.80;1.00
10296;DHT22;5193;51.032;6.356;2023-07-08T07:47:18;26.90;99.90
10296;DHT22;5193;51.032;6.356;2023-07-08T07:49:44;27.00;99.90
10296;DHT22;5193;51.032;6.356;2023-07-08T07:52:09;27.10;99.90
10296;DHT22;5193;51.032;6.356;2023-07-08T07:54:37;27.30;99.90
10296;DHT22;5193;51.032;6.356;2023-07-08T07:57:03;27.30;99.90
10296;DHT22;5193;51.032;6.356;2023-07-08T07:59:29;27.40;99.90
10296;DHT22;5193;51.032;6.356;2023-07-08T08:01:54;27.50;99.90
10296;DHT22;5193;51.032;6.356;2023-07-08T08:04:20;27.50;99.90
10296;DHT22;5193;51.032;6.356;2023-07-08T08:06:45;27.50;99.90
10296;DHT22;5193;51.032;6.356;2023-07-08T08:09:12;27.60;99.90
10296;DHT22;5193;51.032;6.356;2023-07-08T08:11:38;27.70;90.60
10296;DHT22;5193;51.032;6.356;2023-07-08T08:14:03;27.80;19.80
10296;DHT22;5193;51.032;6.356;2023-07-08T08:16:29;28.00;1.00
10296;DHT22;5193;51.032;6.356;2023-07-08T08:18:55;28.00;1.00
10296;DHT22;5193;51.032;6.356;2023-07-08T08:21:21;28.10;1.00
10296;DHT22;5193;51.032;6.356;2023-07-08T08:23:47;28.20;1.00
10296;DHT22;5193;51.032;6.356;2023-07-08T08:26:13;28.30;1.00
10296;DHT22;5193;51.032;6.356;2023-07-08T08:28:39;28.40;1.00
10296;DHT22;5193;51.032;6.356;2023-07-08T08:31:04;28.50;1.00
10296;DHT22;5193;51.032;6.356;2023-07-08T08:33:30;28.60;1.00
10296;DHT22;5193;51.032;6.356;2023-07-08T08:35:55;28.60;1.00
10296;DHT22;5193;51.032;6.356;2023-07-08T08:38:21;28.70;1.00
10296;DHT22;5193;51.032;6.356;2023-07-08T08:40:46;28.80;1.00
10296;DHT22;5193;51.032;6.356;2023-07-08T08:43:22;28.90;1.00
10296;DHT22;5193;51.032;6.356;2023-07-08T08:46:05;28.90;1.00
10296;DHT22;5193;51.032;6.356;2023-07-08T08:48:40;29.00;1.00
10296;DHT22;5193;51.032;6.356;2023-07-08T08:51:12;29.20;1.00
10296;DHT22;5193;51.032;6.356;2023-07-08T08:53:39;29.20;1.00
10296;DHT22;5193;51.032;6.356;2023-07-08T08:56:34;29.30;1.00
10296;DHT22;5193;51.032;6.356;2023-07-08T08:59:11;29.40;1.00
10296;DHT22;5193;51.032;6.356;2023-07-08T09:01:38;29.50;1.00
10296;DHT22;5193;51.032;6.356;2023-07-08T09:04:13;29.60;1.00
10296;DHT22;5193;51.032;6.356;2023-07-08T09:06:42;29.70;1.00
10296;DHT22;5193;51.032;6.356;2023-07-08T09:09:16;29.90;1.00
10296;DHT22;5193;51.032;6.356;2023-07-08T09:11:51;30.00;1.00
10296;DHT22;5193;51.032;6.356;2023-07-08T09:19:33;30.30;1.00
10296;DHT22;5193;51.032;6.356;2023-07-08T09:24:41;30.50;1.00
10296;DHT22;5193;51.032;6.356;2023-07-08T09:27:07;30.70;1.00
10296;DHT22;5193;51.032;6.356;2023-07-08T09:29:33;30.70;1.00
10296;DHT22;5193;51.032;6.356;2023-07-08T09:32:11;30.70;1.00
10296;DHT22;5193;51.032;6.356;2023-07-08T09:37:27;31.00;1.00
10296;DHT22;5193;51.032;6.356;2023-07-08T09:39:54;31.10;1.00
10296;DHT22;5193;51.032;6.356;2023-07-08T09:42:22;31.20;1.00
10296;DHT22;5193;51.032;6.356;2023-07-08T09:44:53;31.30;1.00
10296;DHT22;5193;51.032;6.356;2023-07-08T09:47:42;31.30;1.00
10296;DHT22;5193;51.032;6.356;2023-07-08T09:50:20;31.30;1.00
10296;DHT22;5193;51.032;6.356;2023-07-08T09:52:48;31.40;1.00
10296;DHT22;5193;51.032;6.356;2023-07-08T09:55:14;31.60;1.00
10296;DHT22;5193;51.032;6.356;2023-07-08T09:57:40;31.60;1.00
10296;DHT22;5193;51.032;6.356;2023-07-08T10:00:17;31.70;1.00
10296;DHT22;5193;51.032;6.356;2023-07-08T10:02:56;31.80;1.00
10296;DHT22;5193;51.032;6.356;2023-07-08T10:05:38;31.90;1.00
10296;DHT22;5193;51.032;6.356;2023-07-08T10:08:21;32.00;1.00
10296;DHT22;5193;51.032;6.356;2023-07-08T10:11:00;32.10;1.00
10296;DHT22;5193;51.032;6.356;2023-07-08T10:13:42;32.20;1.00
10296;DHT22;5193;51.032;6.356;2023-07-08T10:16:25;32.20;1.00
10296;DHT22;5193;51.032;6.356;2023-07-08T10:18:52;32.30;1.00
10296;DHT22;5193;51.032;6.356;2023-07-08T10:24:19;32.50;1.00
10296;DHT22;5193;51.032;6.356;2023-07-08T10:26:51;32.60;1.00
10296;DHT22;5193;51.032;6.356;2023-07-08T10:29:39;32.80;1.00
10296;DHT22;5193;51.032;6.356;2023-07-08T10:32:21;32.80;1.00
10296;DHT22;5193;51.032;6.356;2023-07-08T10:43:13;33.10;1.00
10296;DHT22;5193;51.032;6.356;2023-07-08T10:51:58;33.40;1.00
10296;DHT22;5193;51.032;6.356;2023-07-08T11:00:02;33.80;1.00
10296;DHT22;5193;51.032;6.356;2023-07-08T11:05:26;34.00;1.00
10296;DHT22;5193;51.032;6.356;2023-07-08T11:08:01;34.10;1.00
10296;DHT22;5193;51.032;6.356;2023-07-08T11:10:36;34.20;1.00
10296;DHT22;5193;51.032;6.356;2023-07-08T11:13:10;34.20;1.00
10296;DHT22;5193;51.032;6.356;2023-07-08T11:15:48;34.40;1.00
10296;DHT22;5193;51.032;6.356;2023-07-08T11:18:17;34.50;1.00
10296;DHT22;5193;51.032;6.356;2023-07-08T11:20:59;34.60;1.00
10296;DHT22;5193;51.032;6.356;2023-07-08T11:28:34;34.80;1.00
10296;DHT22;5193;51.032;6.356;2023-07-08T11:31:01;34.90;1.00
10296;DHT22;5193;51.032;6.356;2023-07-08T11:33:28;35.00;1.00
10296;DHT22;5193;51.032;6.356;2023-07-08T11:35:57;35.20;1.00
10296;DHT22;5193;51.032;6.356;2023-07-08T11:38:26;35.20;1.00
10296;DHT22;5193;51.032;6.356;2023-07-08T11:40:56;35.30;1.00
10296;DHT22;5193;51.032;6.356;2023-07-08T11:43:24;35.40;1.00
10296;DHT22;5193;51.032;6.356;2023-07-08T11:45:50;35.50;1.00
10296;DHT22;5193;51.032;6.356;2023-07-08T11:48:31;35.60;1.00
10296;DHT22;5193;51.032;6.356;2023-07-08T11:51:04;35.70;1.00
10296;DHT22;5193;51.032;6.356;2023-07-08T11:56:00;35.90;1.00
10296;DHT22;5193;51.032;6.356;2023-07-08T11:58:26;36.00;1.00
10296;DHT22;5193;51.032;6.356;2023-07-08T12:03:36;36.20;1.00
10296;DHT22;5193;51.032;6.356;2023-07-08T12:06:04;36.30;1.00
10296;DHT22;5193;51.032;6.356;2023-07-08T12:08:48;36.30;1.00
10296;DHT22;5193;51.032;6.356;2023-07-08T12:11:14;36.30;1.00
10296;DHT22;5193;51.032;6.356;2023-07-08T12:13:39;36.40;1.00
10296;DHT22;5193;51.032;6.356;2023-07-08T12:16:10;36.50;1.00
10296;DHT22;5193;51.032;6.356;2023-07-08T12:18:38;36.50;1.00
10296;DHT22;5193;51.032;6.356;2023-07-08T12:21:11;36.60;1.00
10296;DHT22;5193;51.032;6.356;2023-07-08T12:23:46;36.60;1.00
10296;DHT22;5193;51.032;6.356;2023-07-08T12:26:13;36.60;1.00
10296;DHT22;5193;51.032;6.356;2023-07-08T12:28:40;36.70;1.00
10296;DHT22;5193;51.032;6.356;2023-07-08T12:31:17;36.70;1.00
10296;DHT22;5193;51.032;6.356;2023-07-08T12:33:44;36.80;1.00
10296;DHT22;5193;51.032;6.356;2023-07-08T12:36:14;36.80;1.00
10296;DHT22;5193;51.032;6.356;2023-07-08T12:38:42;36.80;1.00
10296;DHT22;5193;51.032;6.356;2023-07-08T12:41:13;36.90;1.00
10296;DHT22;5193;51.032;6.356;2023-07-08T12:43:39;37.10;1.00
10296;DHT22;5193;51.032;6.356;2023-07-08T12:46:05;37.10;1.00
10296;DHT22;5193;51.032;6.356;2023-07-08T12:48:34;37.20;1.00
10296;DHT22;5193;51.032;6.356;2023-07-08T12:51:00;37.20;1.00
10296;DHT22;5193;51.032;6.356;2023-07-08T12:53:25;37.10;1.00
10296;DHT22;5193;51.032;6.356;2023-07-08T12:55:53;37.10;1.00
10296;DHT22;5193;51.032;6.356;2023-07-08T12:58:24;37.10;1.00
10296;DHT22;5193;51.032;6.356;2023-07-08T13:00:51;37.00;1.00
10296;DHT22;5193;51.032;6.356;2023-07-08T13:03:20;37.00;1.00
10296;DHT22;5193;51.032;6.356;2023-07-08T13:05:48;37.20;1.00
10296;DHT22;5193;51.032;6.356;2023-07-08T13:08:17;37.30;1.00
10296;DHT22;5193;51.032;6.356;2023-07-08T13:10:44;37.30;1.00
10296;DHT22;5193;51.032;6.356;2023-07-08T13:13:22;37.20;1.00
10296;DHT22;5193;51.032;6.356;2023-07-08T13:15:48;37.30;1.00
10296;DHT22;5193;51.032;6.356;2023-07-08T13:18:19;37.40;1.00
10296;DHT22;5193;51.032;6.356;2023-07-08T13:20:54;37.60;1.00
10296;DHT22;5193;51.032;6.356;2023-07-08T13:23:22;37.60;1.00
10296;DHT22;5193;51.032;6.356;2023-07-08T13:25:50;37.60;1.00
10296;DHT22;5193;51.032;6.356;2023-07-08T13:28:24;37.60;1.00
10296;DHT22;5193;51.032;6.356;2023-07-08T13:30:59;37.60;1.00
10296;DHT22;5193;51.032;6.356;2023-07-08T13:33:30;37.70;1.00
10296;DHT22;5193;51.032;6.356;2023-07-08T13:35:56;37.80;1.00
10296;DHT22;5193;51.032;6.356;2023-07-08T13:38:24;37.80;1.00
10296;DHT22;5193;51.032;6.356;2023-07-08T13:40:59;37.80;1.00
10296;DHT22;5193;51.032;6.356;2023-07-08T13:43:27;37.90;1.00
10296;DHT22;5193;51.032;6.356;2023-07-08T13:45:53;38.00;1.00
10296;DHT22;5193;51.032;6.356;2023-07-08T13:51:21;38.20;1.00
10296;DHT22;5193;51.032;6.356;2023-07-08T13:53:52;38.30;1.00
10296;DHT22;5193;51.032;6.356;2023-07-08T13:56:34;38.20;1.00
10296;DHT22;5193;51.032;6.356;2023-07-08T13:59:06;38.10;1.00
10296;DHT22;5193;51.032;6.356;2023-07-08T14:01:35;38.00;1.00
10296;DHT22;5193;51.032;6.356;2023-07-08T14:04:03;38.00;1.00
10296;DHT22;5193;51.032;6.356;2023-07-08T14:06:32;37.90;1.00
10296;DHT22;5193;51.032;6.356;2023-07-08T14:09:10;37.80;1.00
10296;DHT22;5193;51.032;6.356;2023-07-08T14:11:36;37.70;1.00
10296;DHT22;5193;51.032;6.356;2023-07-08T14:14:02;37.60;1.00
10296;DHT22;5193;51.032;6.356;2023-07-08T14:16:29;37.50;1.00
10296;DHT22;5193;51.032;6.356;2023-07-08T14:19:01;37.40;1.00
10296;DHT22;5193;51.032;6.356;2023-07-08T14:21:32;37.50;1.00
10296;DHT22;5193;51.032;6.356;2023-07-08T14:23:58;37.40;1.00
10296;DHT22;5193;51.032;6.356;2023-07-08T14:26:23;37.40;1.00
10296;DHT22;5193;51.032;6.356;2023-07-08T14:28:49;37.40;1.00
10296;DHT22;5193;51.032;6.356;2023-07-08T14:31:23;37.30;1.00
10296;DHT22;5193;51.032;6.356;2023-07-08T14:33:57;37.40;1.00
10296;DHT22;5193;51.032;6.356;2023-07-08T14:36:24;37.30;1.00
10296;DHT22;5193;51.032;6.356;2023-07-08T14:38:50;37.30;1.00
10296;DHT22;5193;51.032;6.356;2023-07-08T14:41:15;37.40;1.00
10296;DHT22;5193;51.032;6.356;2023-07-08T14:43:41;37.50;1.00
10296;DHT22;5193;51.032;6.356;2023-07-08T14:46:09;37.60;1.00
10296;DHT22;5193;51.032;6.356;2023-07-08T14:48:35;37.70;1.00
10296;DHT22;5193;51.032;6.356;2023-07-08T14:51:00;37.80;1.00
10296;DHT22;5193;51.032;6.356;2023-07-08T14:53:26;37.80;1.00
10296;DHT22;5193;51.032;6.356;2023-07-08T14:55:53;37.90;1.00
10296;DHT22;5193;51.032;6.356;2023-07-08T14:58:24;38.00;1.00
10296;DHT22;5193;51.032;6.356;2023-07-08T15:00:54;38.10;1.00
10296;DHT22;5193;51.032;6.356;2023-07-08T15:03:20;38.30;1.00
10296;DHT22;5193;51.032;6.356;2023-07-08T15:05:45;38.40;1.00
10296;DHT22;5193;51.032;6.356;2023-07-08T15:08:11;38.30;1.00
10296;DHT22;5193;51.032;6.356;2023-07-08T15:10:38;38.40;1.00
10296;DHT22;5193;51.032;6.356;2023-07-08T15:13:09;38.40;1.00
10296;DHT22;5193;51.032;6.356;2023-07-08T15:15:35;38.50;1.00
10296;DHT22;5193;51.032;6.356;2023-07-08T15:18:05;38.30;1.00
10296;DHT22;5193;51.032;6.356;2023-07-08T15:20:35;38.00;1.00
10296;DHT22;5193;51.032;6.356;2023-07-08T15:23:00;37.60;1.00
10296;DHT22;5193;51.032;6.356;2023-07-08T15:25:26;37.50;1.00
10296;DHT22;5193;51.032;6.356;2023-07-08T15:27:53;37.60;1.00
10296;DHT22;5193;51.032;6.356;2023-07-08T15:30:21;37.70;1.00
10296;DHT22;5193;51.032;6.356;2023-07-08T15:32:47;37.60;1.00
10296;DHT22;5193;51.032;6.356;2023-07-08T15:35:16;37.60;1.00
10296;DHT22;5193;51.032;6.356;2023-07-08T15:37:43;37.70;1.00
10296;DHT22;5193;51.032;6.356;2023-07-08T15:40:09;37.90;1.00
10296;DHT22;5193;51.032;6.356;2023-07-08T15:42:38;37.90;1.00
10296;DHT22;5193;51.032;6.356;2023-07-08T15:45:14;38.00;1.00
10296;DHT22;5193;51.032;6.356;2023-07-08T15:47:40;37.90;1.00
10296;DHT22;5193;51.032;6.356;2023-07-08T15:50:15;37.80;1.00
10296;DHT22;5193;51.032;6.356;2023-07-08T15:52:41;37.80;1.00
10296;DHT22;5193;51.032;6.356;2023-07-08T15:55:08;37.60;1.00
10296;DHT22;5193;51.032;6.356;2023-07-08T15:57:41;37.40;1.00
10296;DHT22;5193;51.032;6.356;2023-07-08T16:00:15;37.00;1.00
10296;DHT22;5193;51.032;6.356;2023-07-08T16:02:46;36.60;1.00
10296;DHT22;5193;51.032;6.356;2023-07-08T16:05:12;36.30;1.00
10296;DHT22;5193;51.032;6.356;2023-07-08T16:07:38;36.30;1.00
10296;DHT22;5193;51.032;6.356;2023-07-08T16:10:03;36.20;1.00
10296;DHT22;5193;51.032;6.356;2023-07-08T16:12:29;36.20;1.00
10296;DHT22;5193;51.032;6.356;2023-07-08T16:14:55;36.10;1.00
10296;DHT22;5193;51.032;6.356;2023-07-08T16:17:20;35.90;1.00
10296;DHT22;5193;51.032;6.356;2023-07-08T16:19:46;35.80;1.00
10296;DHT22;5193;51.032;6.356;2023-07-08T16:22:11;35.70;1.00
10296;DHT22;5193;51.032;6.356;2023-07-08T16:24:37;35.70;1.00
10296;DHT22;5193;51.032;6.356;2023-07-08T16:27:03;35.90;1.00
10296;DHT22;5193;51.032;6.356;2023-07-08T16:29:28;36.10;1.00
10296;DHT22;5193;51.032;6.356;2023-07-08T16:31:54;36.10;1.00
10296;DHT22;5193;51.032;6.356;2023-07-08T16:34:19;36.20;1.00
10296;DHT22;5193;51.032;6.356;2023-07-08T16:36:45;36.30;1.00
10296;DHT22;5193;51.032;6.356;2023-07-08T16:39:10;36.50;1.00
10296;DHT22;5193;51.032;6.356;2023-07-08T16:41:37;36.60;1.00
10296;DHT22;5193;51.032;6.356;2023-07-08T16:44:11;36.70;1.00
10296;DHT22;5193;51.032;6.356;2023-07-08T16:46:38;36.90;1.00
10296;DHT22;5193;51.032;6.356;2023-07-08T16:49:03;37.00;1.00
10296;DHT22;5193;51.032;6.356;2023-07-08T16:51:29;37.00;1.00
10296;DHT22;5193;51.032;6.356;2023-07-08T16:54:13;37.00;1.00
10296;DHT22;5193;51.032;6.356;2023-07-08T16:56:39;37.00;1.00
10296;DHT22;5193;51.032;6.356;2023-07-08T16:59:04;37.00;1.00
10296;DHT22;5193;51.032;6.356;2023-07-08T17:01:30;37.00;1.00
10296;DHT22;5193;51.032;6.356;2023-07-08T17:03:57;37.10;1.00